sensor_id;sensor_type;location;lat;lon;timestamp;P1;durP1;ratioP1;P2;durP2;ratioP2
21769;SDS011;11046;49.558;8.674;2022-11-04T00:01:50;18.23;;;9.27;;
21769;SDS011;11046;49.558;8.674;2022-11-04T00:04:51;20.23;;;9.47;;
21769;SDS011;11046;49.558;8.674;2022-11-04T00:07:52;15.53;;;8.87;;
21769;SDS011;11046;49.558;8.674;2022-11-04T00:11:19;16.17;;;9.27;;
21769;SDS011;11046;49.558;8.674;2022-11-04T00:14:38;18.23;;;9.60;;
21769;SDS011;11046;49.558;8.674;2022-11-04T00:17:39;19.50;;;8.77;;
21769;SDS011;11046;49.558;8.674;2022-11-04T00:20:39;13.60;;;7.77;;
21769;SDS011;11046;49.558;8.674;2022-11-04T00:23:58;12.83;;;7.00;;
21769;SDS011;11046;49.558;8.674;2022-11-04T00:27:19;13.63;;;7.43;;
21769;SDS011;11046;49.558;8.674;2022-11-04T00:30:39;17.63;;;7.67;;
21769;SDS011;11046;49.558;8.674;2022-11-04T00:33:39;10.30;;;5.70;;
21769;SDS011;11046;49.558;8.674;2022-11-04T00:36:40;14.93;;;6.57;;
21769;SDS011;11046;49.558;8.674;2022-11-04T00:39:40;13.90;;;6.73;;
21769;SDS011;11046;49.558;8.674;2022-11-04T00:42:42;8.67;;;5.13;;
21769;SDS011;11046;49.558;8.674;2022-11-04T00:45:44;12.20;;;4.27;;
21769;SDS011;11046;49.558;8.674;2022-11-04T00:48:44;9.07;;;3.90;;
21769;SDS011;11046;49.558;8.674;2022-11-04T00:51:45;9.43;;;3.83;;
21769;SDS011;11046;49.558;8.674;2022-11-04T00:54:46;7.40;;;3.70;;
21769;SDS011;11046;49.558;8.674;2022-11-04T00:57:46;6.27;;;3.10;;
21769;SDS011;11046;49.558;8.674;2022-11-04T01:00:47;4.17;;;3.00;;
21769;SDS011;11046;49.558;8.674;2022-11-04T01:03:48;5.53;;;3.10;;
21769;SDS011;11046;49.558;8.674;2022-11-04T01:06:50;8.03;;;2.60;;
21769;SDS011;11046;49.558;8.674;2022-11-04T01:09:51;6.10;;;2.53;;
21769;SDS011;11046;49.558;8.674;2022-11-04T01:12:52;4.40;;;2.13;;
21769;SDS011;11046;49.558;8.674;2022-11-04T01:15:52;3.87;;;2.20;;
21769;SDS011;11046;49.558;8.674;2022-11-04T01:18:53;5.97;;;3.00;;
21769;SDS011;11046;49.558;8.674;2022-11-04T01:21:54;7.23;;;2.93;;
21769;SDS011;11046;49.558;8.674;2022-11-04T01:24:54;9.43;;;3.20;;
21769;SDS011;11046;49.558;8.674;2022-11-04T01:27:55;5.03;;;2.10;;
21769;SDS011;11046;49.558;8.674;2022-11-04T01:30:56;8.93;;;3.63;;
21769;SDS011;11046;49.558;8.674;2022-11-04T01:33:56;6.17;;;2.93;;
21769;SDS011;11046;49.558;8.674;2022-11-04T01:36:58;8.63;;;2.13;;
21769;SDS011;11046;49.558;8.674;2022-11-04T01:39:58;3.70;;;2.07;;
21769;SDS011;11046;49.558;8.674;2022-11-04T01:42:59;4.70;;;1.87;;
21769;SDS011;11046;49.558;8.674;2022-11-04T01:45:59;2.40;;;1.77;;
21769;SDS011;11046;49.558;8.674;2022-11-04T01:52:31;3.53;;;1.50;;
21769;SDS011;11046;49.558;8.674;2022-11-04T01:55:38;4.53;;;1.90;;
21769;SDS011;11046;49.558;8.674;2022-11-04T01:58:45;5.70;;;3.00;;
21769;SDS011;11046;49.558;8.674;2022-11-04T02:01:49;5.07;;;2.00;;
21769;SDS011;11046;49.558;8.674;2022-11-04T02:04:49;3.73;;;1.70;;
21769;SDS011;11046;49.558;8.674;2022-11-04T02:07:52;4.03;;;1.80;;
21769;SDS011;11046;49.558;8.674;2022-11-04T02:10:58;3.27;;;1.73;;
21769;SDS011;11046;49.558;8.674;2022-11-04T02:14:00;4.47;;;2.20;;
21769;SDS011;11046;49.558;8.674;2022-11-04T02:27:23;2.80;;;1.70;;
21769;SDS011;11046;49.558;8.674;2022-11-04T02:30:51;4.33;;;2.20;;
21769;SDS011;11046;49.558;8.674;2022-11-04T02:34:04;2.70;;;1.80;;
21769;SDS011;11046;49.558;8.674;2022-11-04T02:37:27;3.97;;;1.77;;
21769;SDS011;11046;49.558;8.674;2022-11-04T02:44:13;2.93;;;1.80;;
21769;SDS011;11046;49.558;8.674;2022-11-04T02:47:22;3.37;;;1.77;;
21769;SDS011;11046;49.558;8.674;2022-11-04T02:53:38;3.93;;;1.80;;
21769;SDS011;11046;49.558;8.674;2022-11-04T02:56:50;4.67;;;1.77;;
21769;SDS011;11046;49.558;8.674;2022-11-04T02:59:54;2.60;;;1.77;;
21769;SDS011;11046;49.558;8.674;2022-11-04T03:03:03;4.43;;;2.00;;
21769;SDS011;11046;49.558;8.674;2022-11-04T03:06:09;3.57;;;1.80;;
21769;SDS011;11046;49.558;8.674;2022-11-04T03:09:12;4.33;;;1.80;;
21769;SDS011;11046;49.558;8.674;2022-11-04T03:12:16;4.67;;;1.87;;
21769;SDS011;11046;49.558;8.674;2022-11-04T03:15:26;4.40;;;2.00;;
21769;SDS011;11046;49.558;8.674;2022-11-04T03:21:38;3.70;;;2.07;;
21769;SDS011;11046;49.558;8.674;2022-11-04T03:24:51;3.87;;;2.10;;
21769;SDS011;11046;49.558;8.674;2022-11-04T03:31:02;3.33;;;2.00;;
21769;SDS011;11046;49.558;8.674;2022-11-04T03:34:05;2.93;;;1.90;;
21769;SDS011;11046;49.558;8.674;2022-11-04T03:37:05;5.83;;;2.30;;
21769;SDS011;11046;49.558;8.674;2022-11-04T03:40:06;5.43;;;2.40;;
21769;SDS011;11046;49.558;8.674;2022-11-04T03:43:15;3.17;;;1.70;;
21769;SDS011;11046;49.558;8.674;2022-11-04T03:46:20;3.57;;;1.93;;
21769;SDS011;11046;49.558;8.674;2022-11-04T03:49:21;5.90;;;2.07;;
21769;SDS011;11046;49.558;8.674;2022-11-04T03:52:23;6.83;;;2.10;;
21769;SDS011;11046;49.558;8.674;2022-11-04T03:55:30;6.57;;;2.40;;
21769;SDS011;11046;49.558;8.674;2022-11-04T03:58:51;5.73;;;2.40;;
21769;SDS011;11046;49.558;8.674;2022-11-04T04:02:08;4.70;;;2.60;;
21769;SDS011;11046;49.558;8.674;2022-11-04T04:05:21;5.80;;;2.27;;
21769;SDS011;11046;49.558;8.674;2022-11-04T04:08:40;6.17;;;2.43;;
21769;SDS011;11046;49.558;8.674;2022-11-04T04:14:58;3.60;;;1.83;;
21769;SDS011;11046;49.558;8.674;2022-11-04T04:18:05;5.20;;;2.60;;
21769;SDS011;11046;49.558;8.674;2022-11-04T04:21:13;4.50;;;2.57;;
21769;SDS011;11046;49.558;8.674;2022-11-04T04:24:18;9.40;;;2.43;;
21769;SDS011;11046;49.558;8.674;2022-11-04T04:27:41;5.43;;;2.13;;
21769;SDS011;11046;49.558;8.674;2022-11-04T04:30:43;5.73;;;2.43;;
21769;SDS011;11046;49.558;8.674;2022-11-04T04:33:45;10.90;;;2.87;;
21769;SDS011;11046;49.558;8.674;2022-11-04T04:36:49;7.43;;;2.30;;
21769;SDS011;11046;49.558;8.674;2022-11-04T04:39:57;9.23;;;2.20;;
21769;SDS011;11046;49.558;8.674;2022-11-04T04:43:17;10.30;;;2.20;;
21769;SDS011;11046;49.558;8.674;2022-11-04T04:46:37;4.30;;;2.23;;
21769;SDS011;11046;49.558;8.674;2022-11-04T04:49:59;6.57;;;2.00;;
21769;SDS011;11046;49.558;8.674;2022-11-04T04:53:00;6.83;;;1.90;;
21769;SDS011;11046;49.558;8.674;2022-11-04T04:56:03;9.23;;;3.33;;
21769;SDS011;11046;49.558;8.674;2022-11-04T04:59:03;16.23;;;4.20;;
21769;SDS011;11046;49.558;8.674;2022-11-04T05:02:05;10.50;;;3.00;;
21769;SDS011;11046;49.558;8.674;2022-11-04T05:05:05;8.03;;;2.50;;
21769;SDS011;11046;49.558;8.674;2022-11-04T05:08:06;6.97;;;2.83;;
21769;SDS011;11046;49.558;8.674;2022-11-04T05:11:07;6.80;;;1.83;;
21769;SDS011;11046;49.558;8.674;2022-11-04T05:14:08;7.20;;;2.03;;
21769;SDS011;11046;49.558;8.674;2022-11-04T05:17:09;6.00;;;1.80;;
21769;SDS011;11046;49.558;8.674;2022-11-04T05:20:10;10.63;;;2.43;;
21769;SDS011;11046;49.558;8.674;2022-11-04T05:23:11;5.20;;;2.20;;
21769;SDS011;11046;49.558;8.674;2022-11-04T05:26:13;6.93;;;2.30;;
21769;SDS011;11046;49.558;8.674;2022-11-04T05:29:14;6.67;;;2.50;;
21769;SDS011;11046;49.558;8.674;2022-11-04T05:32:15;5.27;;;2.07;;
21769;SDS011;11046;49.558;8.674;2022-11-04T05:35:15;7.90;;;3.47;;
21769;SDS011;11046;49.558;8.674;2022-11-04T05:38:16;6.87;;;2.20;;
21769;SDS011;11046;49.558;8.674;2022-11-04T05:41:16;7.87;;;2.17;;
21769;SDS011;11046;49.558;8.674;2022-11-04T05:44:27;8.63;;;3.30;;
21769;SDS011;11046;49.558;8.674;2022-11-04T05:47:27;6.90;;;2.23;;
21769;SDS011;11046;49.558;8.674;2022-11-04T05:50:28;7.37;;;1.93;;
21769;SDS011;11046;49.558;8.674;2022-11-04T05:53:30;4.57;;;2.00;;
21769;SDS011;11046;49.558;8.674;2022-11-04T05:56:31;6.87;;;2.00;;
21769;SDS011;11046;49.558;8.674;2022-11-04T05:59:31;8.53;;;2.00;;
21769;SDS011;11046;49.558;8.674;2022-11-04T06:02:32;9.03;;;1.90;;
21769;SDS011;11046;49.558;8.674;2022-11-04T06:05:32;7.63;;;2.40;;
21769;SDS011;11046;49.558;8.674;2022-11-04T06:08:33;6.23;;;1.80;;
21769;SDS011;11046;49.558;8.674;2022-11-04T06:11:34;4.17;;;1.73;;
21769;SDS011;11046;49.558;8.674;2022-11-04T06:14:36;8.57;;;1.70;;
21769;SDS011;11046;49.558;8.674;2022-11-04T06:17:38;5.27;;;1.40;;
21769;SDS011;11046;49.558;8.674;2022-11-04T06:20:38;4.90;;;1.80;;
21769;SDS011;11046;49.558;8.674;2022-11-04T06:23:40;7.33;;;1.87;;
21769;SDS011;11046;49.558;8.674;2022-11-04T06:26:41;8.03;;;1.77;;
21769;SDS011;11046;49.558;8.674;2022-11-04T06:29:41;4.00;;;1.60;;
21769;SDS011;11046;49.558;8.674;2022-11-04T06:32:42;4.33;;;1.40;;
21769;SDS011;11046;49.558;8.674;2022-11-04T06:35:42;4.20;;;1.40;;
21769;SDS011;11046;49.558;8.674;2022-11-04T06:38:44;5.60;;;2.00;;
21769;SDS011;11046;49.558;8.674;2022-11-04T06:41:44;8.77;;;1.50;;
21769;SDS011;11046;49.558;8.674;2022-11-04T06:44:45;4.47;;;1.57;;
21769;SDS011;11046;49.558;8.674;2022-11-04T06:47:45;4.40;;;1.50;;
21769;SDS011;11046;49.558;8.674;2022-11-04T06:50:46;4.47;;;1.40;;
21769;SDS011;11046;49.558;8.674;2022-11-04T06:53:47;3.87;;;1.40;;
21769;SDS011;11046;49.558;8.674;2022-11-04T07:00:04;5.47;;;2.20;;
21769;SDS011;11046;49.558;8.674;2022-11-04T07:03:05;3.63;;;1.47;;
21769;SDS011;11046;49.558;8.674;2022-11-04T07:06:07;6.23;;;1.70;;
21769;SDS011;11046;49.558;8.674;2022-11-04T07:09:09;7.57;;;2.20;;
21769;SDS011;11046;49.558;8.674;2022-11-04T07:12:12;6.17;;;2.37;;
21769;SDS011;11046;49.558;8.674;2022-11-04T07:15:13;5.00;;;2.20;;
21769;SDS011;11046;49.558;8.674;2022-11-04T07:18:13;8.80;;;2.90;;
21769;SDS011;11046;49.558;8.674;2022-11-04T07:21:14;6.37;;;2.27;;
21769;SDS011;11046;49.558;8.674;2022-11-04T07:24:14;7.73;;;3.10;;
21769;SDS011;11046;49.558;8.674;2022-11-04T07:30:45;11.27;;;2.23;;
21769;SDS011;11046;49.558;8.674;2022-11-04T07:33:46;9.73;;;2.60;;
21769;SDS011;11046;49.558;8.674;2022-11-04T07:36:48;8.50;;;2.17;;
21769;SDS011;11046;49.558;8.674;2022-11-04T07:39:49;4.97;;;1.70;;
21769;SDS011;11046;49.558;8.674;2022-11-04T07:42:50;7.00;;;2.50;;
21769;SDS011;11046;49.558;8.674;2022-11-04T07:46:01;5.57;;;1.83;;
21769;SDS011;11046;49.558;8.674;2022-11-04T07:49:03;3.37;;;1.53;;
21769;SDS011;11046;49.558;8.674;2022-11-04T07:52:04;5.67;;;1.80;;
21769;SDS011;11046;49.558;8.674;2022-11-04T07:55:04;4.30;;;1.50;;
21769;SDS011;11046;49.558;8.674;2022-11-04T07:58:05;5.53;;;1.57;;
21769;SDS011;11046;49.558;8.674;2022-11-04T08:01:09;4.80;;;1.40;;
21769;SDS011;11046;49.558;8.674;2022-11-04T08:04:12;4.03;;;1.57;;
21769;SDS011;11046;49.558;8.674;2022-11-04T08:07:12;4.63;;;1.33;;
21769;SDS011;11046;49.558;8.674;2022-11-04T08:10:13;4.70;;;1.60;;
21769;SDS011;11046;49.558;8.674;2022-11-04T08:13:13;4.43;;;1.37;;
21769;SDS011;11046;49.558;8.674;2022-11-04T08:16:15;4.73;;;1.50;;
21769;SDS011;11046;49.558;8.674;2022-11-04T08:19:18;4.70;;;2.00;;
21769;SDS011;11046;49.558;8.674;2022-11-04T08:22:19;4.03;;;1.73;;
21769;SDS011;11046;49.558;8.674;2022-11-04T08:25:19;8.47;;;2.17;;
21769;SDS011;11046;49.558;8.674;2022-11-04T08:28:20;4.83;;;2.00;;
21769;SDS011;11046;49.558;8.674;2022-11-04T08:31:24;6.47;;;2.20;;
21769;SDS011;11046;49.558;8.674;2022-11-04T08:34:26;5.93;;;2.30;;
21769;SDS011;11046;49.558;8.674;2022-11-04T08:37:26;3.97;;;2.37;;
21769;SDS011;11046;49.558;8.674;2022-11-04T08:40:27;4.50;;;1.87;;
21769;SDS011;11046;49.558;8.674;2022-11-04T08:43:28;7.27;;;1.67;;
21769;SDS011;11046;49.558;8.674;2022-11-04T08:46:30;4.93;;;1.53;;
21769;SDS011;11046;49.558;8.674;2022-11-04T08:49:40;3.07;;;1.67;;
21769;SDS011;11046;49.558;8.674;2022-11-04T08:52:41;4.80;;;1.63;;
21769;SDS011;11046;49.558;8.674;2022-11-04T08:55:41;2.67;;;1.47;;
21769;SDS011;11046;49.558;8.674;2022-11-04T08:58:42;2.47;;;1.63;;
21769;SDS011;11046;49.558;8.674;2022-11-04T09:01:42;3.00;;;1.47;;
21769;SDS011;11046;49.558;8.674;2022-11-04T09:04:43;4.87;;;1.40;;
21769;SDS011;11046;49.558;8.674;2022-11-04T09:07:44;6.90;;;2.43;;
21769;SDS011;11046;49.558;8.674;2022-11-04T09:10:45;2.07;;;1.53;;
21769;SDS011;11046;49.558;8.674;2022-11-04T09:13:47;5.27;;;1.50;;
21769;SDS011;11046;49.558;8.674;2022-11-04T09:16:47;4.73;;;1.50;;
21769;SDS011;11046;49.558;8.674;2022-11-04T09:19:48;3.13;;;1.30;;
21769;SDS011;11046;49.558;8.674;2022-11-04T09:22:49;5.30;;;1.50;;
21769;SDS011;11046;49.558;8.674;2022-11-04T09:25:49;3.50;;;1.40;;
21769;SDS011;11046;49.558;8.674;2022-11-04T09:28:54;5.70;;;1.53;;
21769;SDS011;11046;49.558;8.674;2022-11-04T09:31:55;3.70;;;1.40;;
21769;SDS011;11046;49.558;8.674;2022-11-04T09:34:56;3.57;;;1.40;;
21769;SDS011;11046;49.558;8.674;2022-11-04T09:37:57;3.07;;;1.40;;
21769;SDS011;11046;49.558;8.674;2022-11-04T09:40:59;2.33;;;1.40;;
21769;SDS011;11046;49.558;8.674;2022-11-04T09:47:26;5.13;;;1.60;;
21769;SDS011;11046;49.558;8.674;2022-11-04T09:50:43;3.23;;;1.70;;
21769;SDS011;11046;49.558;8.674;2022-11-04T09:54:01;4.07;;;1.70;;
21769;SDS011;11046;49.558;8.674;2022-11-04T09:57:15;2.60;;;1.40;;
21769;SDS011;11046;49.558;8.674;2022-11-04T10:00:17;3.27;;;1.40;;
21769;SDS011;11046;49.558;8.674;2022-11-04T10:03:35;5.77;;;1.43;;
21769;SDS011;11046;49.558;8.674;2022-11-04T10:06:52;6.77;;;1.60;;
21769;SDS011;11046;49.558;8.674;2022-11-04T10:10:22;6.47;;;2.07;;
21769;SDS011;11046;49.558;8.674;2022-11-04T10:13:27;4.90;;;1.70;;
21769;SDS011;11046;49.558;8.674;2022-11-04T10:20:02;5.87;;;1.50;;
21769;SDS011;11046;49.558;8.674;2022-11-04T10:23:27;1.70;;;1.20;;
21769;SDS011;11046;49.558;8.674;2022-11-04T10:26:46;3.33;;;1.60;;
21769;SDS011;11046;49.558;8.674;2022-11-04T10:29:53;6.23;;;1.60;;
21769;SDS011;11046;49.558;8.674;2022-11-04T10:33:07;4.50;;;1.23;;
21769;SDS011;11046;49.558;8.674;2022-11-04T10:36:19;4.83;;;1.60;;
21769;SDS011;11046;49.558;8.674;2022-11-04T10:39:33;5.82;;;2.13;;
21769;SDS011;11046;49.558;8.674;2022-11-04T10:42:35;5.87;;;1.67;;
21769;SDS011;11046;49.558;8.674;2022-11-04T10:45:40;6.70;;;1.77;;
21769;SDS011;11046;49.558;8.674;2022-11-04T10:48:59;5.07;;;2.00;;
21769;SDS011;11046;49.558;8.674;2022-11-04T10:52:24;7.45;;;2.10;;
21769;SDS011;11046;49.558;8.674;2022-11-04T10:58:56;9.67;;;2.43;;
21769;SDS011;11046;49.558;8.674;2022-11-04T11:02:03;5.13;;;1.83;;
21769;SDS011;11046;49.558;8.674;2022-11-04T11:08:26;2.95;;;1.42;;
21769;SDS011;11046;49.558;8.674;2022-11-04T11:11:39;4.65;;;1.95;;
21769;SDS011;11046;49.558;8.674;2022-11-04T11:14:40;6.53;;;2.38;;
21769;SDS011;11046;49.558;8.674;2022-11-04T11:17:42;25.45;;;7.90;;
21769;SDS011;11046;49.558;8.674;2022-11-04T11:20:48;12.27;;;4.03;;
21769;SDS011;11046;49.558;8.674;2022-11-04T11:24:14;9.13;;;2.10;;
21769;SDS011;11046;49.558;8.674;2022-11-04T11:27:19;6.70;;;1.90;;
21769;SDS011;11046;49.558;8.674;2022-11-04T11:30:27;7.82;;;1.70;;
21769;SDS011;11046;49.558;8.674;2022-11-04T11:33:50;2.92;;;1.40;;
21769;SDS011;11046;49.558;8.674;2022-11-04T11:36:54;5.85;;;1.67;;
21769;SDS011;11046;49.558;8.674;2022-11-04T11:39:56;5.83;;;1.77;;
21769;SDS011;11046;49.558;8.674;2022-11-04T11:42:58;3.78;;;1.55;;
21769;SDS011;11046;49.558;8.674;2022-11-04T11:45:59;3.25;;;1.30;;
21769;SDS011;11046;49.558;8.674;2022-11-04T11:49:01;6.25;;;1.50;;
21769;SDS011;11046;49.558;8.674;2022-11-04T11:55:22;5.10;;;1.70;;
21769;SDS011;11046;49.558;8.674;2022-11-04T11:58:31;4.45;;;1.95;;
21769;SDS011;11046;49.558;8.674;2022-11-04T12:01:41;5.07;;;1.85;;
21769;SDS011;11046;49.558;8.674;2022-11-04T12:04:46;3.33;;;1.17;;
21769;SDS011;11046;49.558;8.674;2022-11-04T12:07:51;6.30;;;2.17;;
21769;SDS011;11046;49.558;8.674;2022-11-04T12:11:14;7.82;;;1.52;;
21769;SDS011;11046;49.558;8.674;2022-11-04T12:14:30;9.18;;;1.98;;
21769;SDS011;11046;49.558;8.674;2022-11-04T12:17:53;5.10;;;1.50;;
21769;SDS011;11046;49.558;8.674;2022-11-04T12:21:01;6.65;;;2.10;;
21769;SDS011;11046;49.558;8.674;2022-11-04T12:24:26;5.70;;;1.92;;
21769;SDS011;11046;49.558;8.674;2022-11-04T12:31:30;5.32;;;1.85;;
21769;SDS011;11046;49.558;8.674;2022-11-04T12:41:22;4.88;;;1.65;;
21769;SDS011;11046;49.558;8.674;2022-11-04T12:44:59;3.70;;;1.60;;
21769;SDS011;11046;49.558;8.674;2022-11-04T12:55:56;4.72;;;1.40;;
21769;SDS011;11046;49.558;8.674;2022-11-04T13:02:39;3.70;;;1.60;;
21769;SDS011;11046;49.558;8.674;2022-11-04T13:05:52;5.85;;;1.63;;
21769;SDS011;11046;49.558;8.674;2022-11-04T13:09:04;3.50;;;1.63;;
21769;SDS011;11046;49.558;8.674;2022-11-04T13:12:43;6.63;;;1.80;;
21769;SDS011;11046;49.558;8.674;2022-11-04T13:15:51;8.30;;;2.35;;
21769;SDS011;11046;49.558;8.674;2022-11-04T13:18:56;9.10;;;1.67;;
21769;SDS011;11046;49.558;8.674;2022-11-04T13:22:00;5.15;;;1.40;;
21769;SDS011;11046;49.558;8.674;2022-11-04T13:25:16;8.25;;;2.10;;
21769;SDS011;11046;49.558;8.674;2022-11-04T13:28:45;7.53;;;1.40;;
21769;SDS011;11046;49.558;8.674;2022-11-04T13:32:10;6.70;;;1.80;;
21769;SDS011;11046;49.558;8.674;2022-11-04T13:35:28;3.75;;;1.70;;
21769;SDS011;11046;49.558;8.674;2022-11-04T13:45:35;5.57;;;2.77;;
21769;SDS011;11046;49.558;8.674;2022-11-04T13:48:59;4.88;;;1.63;;
21769;SDS011;11046;49.558;8.674;2022-11-04T13:52:18;6.55;;;2.00;;
21769;SDS011;11046;49.558;8.674;2022-11-04T13:55:19;5.72;;;1.80;;
21769;SDS011;11046;49.558;8.674;2022-11-04T13:58:22;5.68;;;1.77;;
21769;SDS011;11046;49.558;8.674;2022-11-04T14:01:26;6.33;;;1.77;;
21769;SDS011;11046;49.558;8.674;2022-11-04T14:04:29;7.90;;;1.90;;
21769;SDS011;11046;49.558;8.674;2022-11-04T14:11:04;6.28;;;1.42;;
21769;SDS011;11046;49.558;8.674;2022-11-04T14:14:15;2.85;;;1.05;;
21769;SDS011;11046;49.558;8.674;2022-11-04T14:20:33;4.85;;;1.55;;
21769;SDS011;11046;49.558;8.674;2022-11-04T14:23:36;5.07;;;1.67;;
21769;SDS011;11046;49.558;8.674;2022-11-04T14:26:40;4.55;;;1.40;;
21769;SDS011;11046;49.558;8.674;2022-11-04T14:29:47;9.82;;;1.08;;
21769;SDS011;11046;49.558;8.674;2022-11-04T14:32:50;6.35;;;1.50;;
21769;SDS011;11046;49.558;8.674;2022-11-04T14:39:21;2.85;;;1.60;;
21769;SDS011;11046;49.558;8.674;2022-11-04T14:42:47;3.70;;;1.65;;
21769;SDS011;11046;49.558;8.674;2022-11-04T14:45:50;4.75;;;2.13;;
21769;SDS011;11046;49.558;8.674;2022-11-04T14:48:52;5.22;;;2.00;;
21769;SDS011;11046;49.558;8.674;2022-11-04T14:51:54;3.60;;;1.63;;
21769;SDS011;11046;49.558;8.674;2022-11-04T14:55:03;6.93;;;2.23;;
21769;SDS011;11046;49.558;8.674;2022-11-04T14:58:25;6.40;;;2.42;;
21769;SDS011;11046;49.558;8.674;2022-11-04T15:01:28;5.45;;;2.20;;
21769;SDS011;11046;49.558;8.674;2022-11-04T15:04:30;5.43;;;2.37;;
21769;SDS011;11046;49.558;8.674;2022-11-04T15:07:33;11.00;;;2.47;;
21769;SDS011;11046;49.558;8.674;2022-11-04T15:10:36;5.37;;;2.50;;
21769;SDS011;11046;49.558;8.674;2022-11-04T15:16:51;7.18;;;2.13;;
21769;SDS011;11046;49.558;8.674;2022-11-04T15:19:55;9.38;;;3.65;;
21769;SDS011;11046;49.558;8.674;2022-11-04T15:22:59;8.37;;;3.00;;
21769;SDS011;11046;49.558;8.674;2022-11-04T15:26:02;7.73;;;2.60;;
21769;SDS011;11046;49.558;8.674;2022-11-04T15:29:07;6.95;;;2.20;;
21769;SDS011;11046;49.558;8.674;2022-11-04T15:32:14;5.43;;;1.80;;
21769;SDS011;11046;49.558;8.674;2022-11-04T15:35:16;6.25;;;1.60;;
21769;SDS011;11046;49.558;8.674;2022-11-04T15:38:16;5.47;;;1.60;;
21769;SDS011;11046;49.558;8.674;2022-11-04T15:41:18;7.83;;;1.70;;
21769;SDS011;11046;49.558;8.674;2022-11-04T15:44:43;7.07;;;2.13;;
21769;SDS011;11046;49.558;8.674;2022-11-04T15:47:45;10.33;;;3.30;;
21769;SDS011;11046;49.558;8.674;2022-11-04T15:50:45;9.93;;;2.37;;
21769;SDS011;11046;49.558;8.674;2022-11-04T15:53:47;10.87;;;3.63;;
21769;SDS011;11046;49.558;8.674;2022-11-04T15:57:10;10.20;;;2.93;;
21769;SDS011;11046;49.558;8.674;2022-11-04T16:03:16;7.07;;;2.60;;
21769;SDS011;11046;49.558;8.674;2022-11-04T16:06:30;9.33;;;3.60;;
21769;SDS011;11046;49.558;8.674;2022-11-04T16:09:43;8.77;;;2.57;;
21769;SDS011;11046;49.558;8.674;2022-11-04T16:12:49;8.13;;;2.90;;
21769;SDS011;11046;49.558;8.674;2022-11-04T16:18:58;9.20;;;2.57;;
21769;SDS011;11046;49.558;8.674;2022-11-04T16:22:04;5.67;;;2.20;;
21769;SDS011;11046;49.558;8.674;2022-11-04T16:25:17;5.63;;;2.00;;
21769;SDS011;11046;49.558;8.674;2022-11-04T16:28:20;3.27;;;1.70;;
21769;SDS011;11046;49.558;8.674;2022-11-04T16:34:24;6.13;;;1.70;;
21769;SDS011;11046;49.558;8.674;2022-11-04T16:37:25;3.67;;;1.57;;
21769;SDS011;11046;49.558;8.674;2022-11-04T16:40:26;4.60;;;1.70;;
21769;SDS011;11046;49.558;8.674;2022-11-04T16:43:27;2.30;;;1.43;;
21769;SDS011;11046;49.558;8.674;2022-11-04T16:46:28;2.83;;;1.50;;
21769;SDS011;11046;49.558;8.674;2022-11-04T16:49:28;8.30;;;4.57;;
21769;SDS011;11046;49.558;8.674;2022-11-04T16:52:30;5.17;;;3.17;;
21769;SDS011;11046;49.558;8.674;2022-11-04T16:55:30;7.93;;;4.50;;
21769;SDS011;11046;49.558;8.674;2022-11-04T16:58:31;11.33;;;5.40;;
21769;SDS011;11046;49.558;8.674;2022-11-04T17:01:32;13.07;;;6.10;;
21769;SDS011;11046;49.558;8.674;2022-11-04T17:04:33;16.77;;;6.40;;
21769;SDS011;11046;49.558;8.674;2022-11-04T17:07:37;13.30;;;6.23;;
21769;SDS011;11046;49.558;8.674;2022-11-04T17:10:37;17.57;;;5.90;;
21769;SDS011;11046;49.558;8.674;2022-11-04T17:13:38;14.13;;;6.27;;
21769;SDS011;11046;49.558;8.674;2022-11-04T17:16:39;11.43;;;6.50;;
21769;SDS011;11046;49.558;8.674;2022-11-04T17:19:39;10.23;;;5.83;;
21769;SDS011;11046;49.558;8.674;2022-11-04T17:22:40;10.77;;;5.87;;
21769;SDS011;11046;49.558;8.674;2022-11-04T17:25:42;12.53;;;5.57;;
21769;SDS011;11046;49.558;8.674;2022-11-04T17:28:43;12.73;;;7.03;;
21769;SDS011;11046;49.558;8.674;2022-11-04T17:31:44;10.47;;;6.43;;
21769;SDS011;11046;49.558;8.674;2022-11-04T17:34:44;8.60;;;3.97;;
21769;SDS011;11046;49.558;8.674;2022-11-04T17:37:45;11.07;;;4.37;;
21769;SDS011;11046;49.558;8.674;2022-11-04T17:40:46;10.33;;;5.10;;
21769;SDS011;11046;49.558;8.674;2022-11-04T17:44:05;12.13;;;4.30;;
21769;SDS011;11046;49.558;8.674;2022-11-04T17:47:06;8.03;;;4.33;;
21769;SDS011;11046;49.558;8.674;2022-11-04T17:50:06;6.17;;;3.50;;
21769;SDS011;11046;49.558;8.674;2022-11-04T17:53:07;11.47;;;5.80;;
21769;SDS011;11046;49.558;8.674;2022-11-04T17:56:15;12.93;;;7.40;;
21769;SDS011;11046;49.558;8.674;2022-11-04T17:59:16;12.90;;;6.90;;
21769;SDS011;11046;49.558;8.674;2022-11-04T18:02:17;9.07;;;4.50;;
21769;SDS011;11046;49.558;8.674;2022-11-04T18:05:17;8.90;;;4.63;;
21769;SDS011;11046;49.558;8.674;2022-11-04T18:08:18;13.70;;;7.90;;
21769;SDS011;11046;49.558;8.674;2022-11-04T18:11:19;18.50;;;10.20;;
21769;SDS011;11046;49.558;8.674;2022-11-04T18:14:39;16.53;;;10.10;;
21769;SDS011;11046;49.558;8.674;2022-11-04T18:17:40;14.03;;;7.43;;
21769;SDS011;11046;49.558;8.674;2022-11-04T18:20:42;10.97;;;6.10;;
21769;SDS011;11046;49.558;8.674;2022-11-04T18:23:42;11.70;;;4.73;;
21769;SDS011;11046;49.558;8.674;2022-11-04T18:26:43;4.43;;;3.00;;
21769;SDS011;11046;49.558;8.674;2022-11-04T18:29:44;7.63;;;2.90;;
21769;SDS011;11046;49.558;8.674;2022-11-04T18:32:45;14.43;;;3.37;;
21769;SDS011;11046;49.558;8.674;2022-11-04T18:35:46;5.27;;;2.70;;
21769;SDS011;11046;49.558;8.674;2022-11-04T18:38:46;6.90;;;3.17;;
21769;SDS011;11046;49.558;8.674;2022-11-04T18:41:47;6.00;;;2.80;;
21769;SDS011;11046;49.558;8.674;2022-11-04T18:44:47;7.67;;;3.73;;
21769;SDS011;11046;49.558;8.674;2022-11-04T18:47:48;7.53;;;4.37;;
21769;SDS011;11046;49.558;8.674;2022-11-04T18:50:51;7.60;;;4.83;;
21769;SDS011;11046;49.558;8.674;2022-11-04T18:53:51;6.97;;;4.23;;
21769;SDS011;11046;49.558;8.674;2022-11-04T18:56:52;8.67;;;3.90;;
21769;SDS011;11046;49.558;8.674;2022-11-04T18:59:53;9.07;;;5.13;;
21769;SDS011;11046;49.558;8.674;2022-11-04T19:02:54;12.43;;;6.37;;
21769;SDS011;11046;49.558;8.674;2022-11-04T19:06:03;16.33;;;7.40;;
21769;SDS011;11046;49.558;8.674;2022-11-04T19:09:09;17.47;;;7.77;;
21769;SDS011;11046;49.558;8.674;2022-11-04T19:12:10;20.40;;;7.73;;
21769;SDS011;11046;49.558;8.674;2022-11-04T19:15:29;17.63;;;6.53;;
21769;SDS011;11046;49.558;8.674;2022-11-04T19:18:33;13.33;;;6.13;;
21769;SDS011;11046;49.558;8.674;2022-11-04T19:21:34;9.13;;;5.10;;
21769;SDS011;11046;49.558;8.674;2022-11-04T19:24:35;10.60;;;5.10;;
21769;SDS011;11046;49.558;8.674;2022-11-04T19:27:35;8.73;;;5.80;;
21769;SDS011;11046;49.558;8.674;2022-11-04T19:30:36;11.20;;;5.60;;
21769;SDS011;11046;49.558;8.674;2022-11-04T19:33:36;10.40;;;5.30;;
21769;SDS011;11046;49.558;8.674;2022-11-04T19:36:38;8.97;;;4.70;;
21769;SDS011;11046;49.558;8.674;2022-11-04T19:39:39;8.63;;;4.53;;
21769;SDS011;11046;49.558;8.674;2022-11-04T19:42:40;9.33;;;4.43;;
21769;SDS011;11046;49.558;8.674;2022-11-04T19:46:04;9.53;;;4.40;;
21769;SDS011;11046;49.558;8.674;2022-11-04T19:49:07;9.80;;;5.07;;
21769;SDS011;11046;49.558;8.674;2022-11-04T19:52:08;10.00;;;5.20;;
21769;SDS011;11046;49.558;8.674;2022-11-04T19:55:09;12.73;;;6.00;;
21769;SDS011;11046;49.558;8.674;2022-11-04T19:58:10;12.70;;;5.47;;
21769;SDS011;11046;49.558;8.674;2022-11-04T20:01:11;9.00;;;5.80;;
21769;SDS011;11046;49.558;8.674;2022-11-04T20:04:17;11.93;;;5.43;;
21769;SDS011;11046;49.558;8.674;2022-11-04T20:07:18;11.23;;;5.67;;
21769;SDS011;11046;49.558;8.674;2022-11-04T20:10:22;11.67;;;6.23;;
21769;SDS011;11046;49.558;8.674;2022-11-04T20:13:22;10.63;;;5.20;;
21769;SDS011;11046;49.558;8.674;2022-11-04T20:16:41;14.03;;;6.27;;
21769;SDS011;11046;49.558;8.674;2022-11-04T20:19:42;10.13;;;5.60;;